sensor_id;sensor_type;location;lat;lon;timestamp;P1;durP1;ratioP1;P2;durP2;ratioP2
32760;SDS011;19126;47.472;7.850;2022-10-31T00:01:19;23.00;;;9.50;;
32760;SDS011;19126;47.472;7.850;2022-10-31T00:03:50;26.25;;;9.88;;
32760;SDS011;19126;47.472;7.850;2022-10-31T00:06:18;18.33;;;8.48;;
32760;SDS011;19126;47.472;7.850;2022-10-31T00:08:45;20.30;;;7.78;;
32760;SDS011;19126;47.472;7.850;2022-10-31T00:11:13;18.95;;;8.68;;
32760;SDS011;19126;47.472;7.850;2022-10-31T00:13:40;22.58;;;7.70;;
32760;SDS011;19126;47.472;7.850;2022-10-31T00:16:13;17.65;;;8.27;;
32760;SDS011;19126;47.472;7.850;2022-10-31T00:18:42;16.95;;;7.40;;
32760;SDS011;19126;47.472;7.850;2022-10-31T00:21:10;25.13;;;7.82;;
32760;SDS011;19126;47.472;7.850;2022-10-31T00:23:37;27.02;;;8.65;;
32760;SDS011;19126;47.472;7.850;2022-10-31T00:26:04;16.90;;;7.50;;
32760;SDS011;19126;47.472;7.850;2022-10-31T00:28:32;19.77;;;7.70;;
32760;SDS011;19126;47.472;7.850;2022-10-31T00:31:00;34.33;;;8.68;;
32760;SDS011;19126;47.472;7.850;2022-10-31T00:33:27;27.98;;;9.27;;
32760;SDS011;19126;47.472;7.850;2022-10-31T00:35:56;18.88;;;7.97;;
32760;SDS011;19126;47.472;7.850;2022-10-31T00:38:23;24.02;;;9.05;;
32760;SDS011;19126;47.472;7.850;2022-10-31T00:40:51;22.73;;;7.40;;
32760;SDS011;19126;47.472;7.850;2022-10-31T00:43:18;22.98;;;10.05;;
32760;SDS011;19126;47.472;7.850;2022-10-31T00:45:45;30.58;;;7.82;;
32760;SDS011;19126;47.472;7.850;2022-10-31T00:48:13;25.13;;;7.80;;
32760;SDS011;19126;47.472;7.850;2022-10-31T00:50:40;33.17;;;8.77;;
32760;SDS011;19126;47.472;7.850;2022-10-31T00:53:09;27.63;;;9.38;;
32760;SDS011;19126;47.472;7.850;2022-10-31T00:55:36;21.85;;;7.85;;
32760;SDS011;19126;47.472;7.850;2022-10-31T00:58:03;19.17;;;8.68;;
32760;SDS011;19126;47.472;7.850;2022-10-31T01:00:30;19.35;;;6.95;;
32760;SDS011;19126;47.472;7.850;2022-10-31T01:02:58;26.20;;;9.02;;
32760;SDS011;19126;47.472;7.850;2022-10-31T01:05:25;22.50;;;7.55;;
32760;SDS011;19126;47.472;7.850;2022-10-31T01:07:52;23.05;;;9.10;;
32760;SDS011;19126;47.472;7.850;2022-10-31T01:10:21;13.50;;;7.80;;
32760;SDS011;19126;47.472;7.850;2022-10-31T01:12:48;20.45;;;8.25;;
32760;SDS011;19126;47.472;7.850;2022-10-31T01:15:16;29.63;;;8.02;;
32760;SDS011;19126;47.472;7.850;2022-10-31T01:17:46;21.63;;;8.07;;
32760;SDS011;19126;47.472;7.850;2022-10-31T01:20:14;21.30;;;7.13;;
32760;SDS011;19126;47.472;7.850;2022-10-31T01:22:42;23.92;;;7.78;;
32760;SDS011;19126;47.472;7.850;2022-10-31T01:25:09;21.88;;;7.15;;
32760;SDS011;19126;47.472;7.850;2022-10-31T01:27:38;21.70;;;7.63;;
32760;SDS011;19126;47.472;7.850;2022-10-31T01:30:05;16.13;;;7.18;;
32760;SDS011;19126;47.472;7.850;2022-10-31T01:32:34;19.98;;;8.20;;
32760;SDS011;19126;47.472;7.850;2022-10-31T01:35:01;24.13;;;8.95;;
32760;SDS011;19126;47.472;7.850;2022-10-31T01:37:30;28.83;;;7.88;;
32760;SDS011;19126;47.472;7.850;2022-10-31T01:39:57;25.10;;;7.57;;
32760;SDS011;19126;47.472;7.850;2022-10-31T01:42:24;25.58;;;7.55;;
32760;SDS011;19126;47.472;7.850;2022-10-31T01:44:58;29.13;;;8.07;;
32760;SDS011;19126;47.472;7.850;2022-10-31T01:47:31;19.75;;;7.82;;
32760;SDS011;19126;47.472;7.850;2022-10-31T01:50:06;15.88;;;7.30;;
32760;SDS011;19126;47.472;7.850;2022-10-31T01:52:50;19.77;;;7.25;;
32760;SDS011;19126;47.472;7.850;2022-10-31T01:55:20;23.73;;;7.55;;
32760;SDS011;19126;47.472;7.850;2022-10-31T01:57:52;30.30;;;8.13;;
32760;SDS011;19126;47.472;7.850;2022-10-31T02:00:24;21.88;;;7.70;;
32760;SDS011;19126;47.472;7.850;2022-10-31T02:02:51;16.33;;;7.85;;
32760;SDS011;19126;47.472;7.850;2022-10-31T02:05:21;28.13;;;8.13;;
32760;SDS011;19126;47.472;7.850;2022-10-31T02:07:53;21.87;;;6.63;;
32760;SDS011;19126;47.472;7.850;2022-10-31T02:10:25;19.95;;;7.65;;
32760;SDS011;19126;47.472;7.850;2022-10-31T02:12:53;25.10;;;8.35;;
32760;SDS011;19126;47.472;7.850;2022-10-31T02:15:25;29.67;;;7.45;;
32760;SDS011;19126;47.472;7.850;2022-10-31T02:17:54;26.38;;;8.50;;
32760;SDS011;19126;47.472;7.850;2022-10-31T02:20:22;33.50;;;7.78;;
32760;SDS011;19126;47.472;7.850;2022-10-31T02:23:08;21.30;;;6.80;;
32760;SDS011;19126;47.472;7.850;2022-10-31T02:29:32;12.25;;;7.15;;
32760;SDS011;19126;47.472;7.850;2022-10-31T02:32:45;23.15;;;8.20;;
32760;SDS011;19126;47.472;7.850;2022-10-31T02:35:24;25.33;;;8.75;;
32760;SDS011;19126;47.472;7.850;2022-10-31T02:38:06;18.50;;;8.40;;
32760;SDS011;19126;47.472;7.850;2022-10-31T02:40:48;23.20;;;8.52;;
32760;SDS011;19126;47.472;7.850;2022-10-31T02:43:26;21.40;;;9.52;;
32760;SDS011;19126;47.472;7.850;2022-10-31T02:46:01;16.58;;;7.00;;
32760;SDS011;19126;47.472;7.850;2022-10-31T02:48:37;16.42;;;7.93;;
32760;SDS011;19126;47.472;7.850;2022-10-31T02:51:08;15.45;;;7.07;;
32760;SDS011;19126;47.472;7.850;2022-10-31T02:53:37;21.50;;;7.40;;
32760;SDS011;19126;47.472;7.850;2022-10-31T02:56:05;15.55;;;7.60;;
32760;SDS011;19126;47.472;7.850;2022-10-31T02:58:40;20.67;;;8.00;;
32760;SDS011;19126;47.472;7.850;2022-10-31T03:07:31;26.70;;;9.75;;
32760;SDS011;19126;47.472;7.850;2022-10-31T03:10:10;19.08;;;7.85;;
32760;SDS011;19126;47.472;7.850;2022-10-31T03:12:47;23.55;;;8.73;;
32760;SDS011;19126;47.472;7.850;2022-10-31T03:15:26;23.13;;;8.10;;
32760;SDS011;19126;47.472;7.850;2022-10-31T03:17:59;18.58;;;8.65;;
32760;SDS011;19126;47.472;7.850;2022-10-31T03:20:33;22.15;;;8.88;;
32760;SDS011;19126;47.472;7.850;2022-10-31T03:23:06;17.92;;;8.18;;
32760;SDS011;19126;47.472;7.850;2022-10-31T03:25:38;29.63;;;9.05;;
32760;SDS011;19126;47.472;7.850;2022-10-31T03:28:07;20.75;;;8.75;;
32760;SDS011;19126;47.472;7.850;2022-10-31T03:30:38;24.20;;;10.25;;
32760;SDS011;19126;47.472;7.850;2022-10-31T03:33:11;18.67;;;9.52;;
32760;SDS011;19126;47.472;7.850;2022-10-31T03:35:44;31.08;;;8.80;;
32760;SDS011;19126;47.472;7.850;2022-10-31T03:38:17;19.73;;;9.15;;
32760;SDS011;19126;47.472;7.850;2022-10-31T03:40:46;28.63;;;8.75;;
32760;SDS011;19126;47.472;7.850;2022-10-31T03:43:16;31.65;;;10.73;;
32760;SDS011;19126;47.472;7.850;2022-10-31T03:45:48;25.38;;;11.00;;
32760;SDS011;19126;47.472;7.850;2022-10-31T03:48:16;29.48;;;10.40;;
32760;SDS011;19126;47.472;7.850;2022-10-31T03:50:49;19.92;;;10.82;;
32760;SDS011;19126;47.472;7.850;2022-10-31T03:53:26;26.75;;;11.73;;
32760;SDS011;19126;47.472;7.850;2022-10-31T03:56:02;29.90;;;12.80;;
32760;SDS011;19126;47.472;7.850;2022-10-31T03:58:36;26.25;;;11.15;;
32760;SDS011;19126;47.472;7.850;2022-10-31T04:01:09;29.17;;;11.32;;
32760;SDS011;19126;47.472;7.850;2022-10-31T04:03:41;24.25;;;10.90;;
32760;SDS011;19126;47.472;7.850;2022-10-31T04:06:12;25.10;;;10.23;;
32760;SDS011;19126;47.472;7.850;2022-10-31T04:08:44;23.42;;;10.07;;
32760;SDS011;19126;47.472;7.850;2022-10-31T04:11:16;27.92;;;9.48;;
32760;SDS011;19126;47.472;7.850;2022-10-31T04:13:49;22.83;;;9.95;;
32760;SDS011;19126;47.472;7.850;2022-10-31T04:16:18;20.35;;;12.30;;
32760;SDS011;19126;47.472;7.850;2022-10-31T04:18:47;22.02;;;10.93;;
32760;SDS011;19126;47.472;7.850;2022-10-31T04:21:16;25.42;;;9.57;;
32760;SDS011;19126;47.472;7.850;2022-10-31T04:23:43;32.47;;;10.73;;
32760;SDS011;19126;47.472;7.850;2022-10-31T04:26:10;25.95;;;11.68;;
32760;SDS011;19126;47.472;7.850;2022-10-31T04:28:39;27.05;;;12.43;;
32760;SDS011;19126;47.472;7.850;2022-10-31T04:31:06;27.60;;;12.57;;
32760;SDS011;19126;47.472;7.850;2022-10-31T04:33:35;22.58;;;11.55;;
32760;SDS011;19126;47.472;7.850;2022-10-31T04:36:03;38.13;;;12.77;;
32760;SDS011;19126;47.472;7.850;2022-10-31T04:38:32;27.17;;;11.30;;
32760;SDS011;19126;47.472;7.850;2022-10-31T04:40:59;28.40;;;11.30;;
32760;SDS011;19126;47.472;7.850;2022-10-31T04:43:27;28.75;;;11.27;;
32760;SDS011;19126;47.472;7.850;2022-10-31T04:45:54;32.53;;;12.77;;
32760;SDS011;19126;47.472;7.850;2022-10-31T04:48:21;19.15;;;9.82;;
32760;SDS011;19126;47.472;7.850;2022-10-31T04:50:48;28.92;;;12.23;;
32760;SDS011;19126;47.472;7.850;2022-10-31T04:53:16;30.00;;;12.60;;
32760;SDS011;19126;47.472;7.850;2022-10-31T04:55:44;28.52;;;11.85;;
32760;SDS011;19126;47.472;7.850;2022-10-31T04:58:11;29.55;;;12.65;;
32760;SDS011;19126;47.472;7.850;2022-10-31T05:00:39;31.42;;;12.93;;
32760;SDS011;19126;47.472;7.850;2022-10-31T05:03:06;28.30;;;12.40;;
32760;SDS011;19126;47.472;7.850;2022-10-31T05:05:33;28.65;;;11.93;;
32760;SDS011;19126;47.472;7.850;2022-10-31T05:08:00;23.80;;;11.32;;
32760;SDS011;19126;47.472;7.850;2022-10-31T05:10:28;25.95;;;10.35;;
32760;SDS011;19126;47.472;7.850;2022-10-31T05:12:58;26.13;;;10.55;;
32760;SDS011;19126;47.472;7.850;2022-10-31T05:15:28;24.27;;;9.60;;
32760;SDS011;19126;47.472;7.850;2022-10-31T05:17:56;33.35;;;12.07;;
32760;SDS011;19126;47.472;7.850;2022-10-31T05:20:24;28.35;;;11.90;;
32760;SDS011;19126;47.472;7.850;2022-10-31T05:22:54;36.58;;;12.52;;
32760;SDS011;19126;47.472;7.850;2022-10-31T05:25:23;41.78;;;13.00;;
32760;SDS011;19126;47.472;7.850;2022-10-31T05:27:53;33.95;;;14.02;;
32760;SDS011;19126;47.472;7.850;2022-10-31T05:30:24;30.40;;;16.08;;
32760;SDS011;19126;47.472;7.850;2022-10-31T05:32:54;41.35;;;16.90;;
32760;SDS011;19126;47.472;7.850;2022-10-31T05:35:23;22.42;;;14.10;;
32760;SDS011;19126;47.472;7.850;2022-10-31T05:37:52;28.80;;;14.38;;
32760;SDS011;19126;47.472;7.850;2022-10-31T05:40:20;34.83;;;15.68;;
32760;SDS011;19126;47.472;7.850;2022-10-31T05:42:50;27.08;;;13.40;;
32760;SDS011;19126;47.472;7.850;2022-10-31T05:45:18;34.55;;;14.77;;
32760;SDS011;19126;47.472;7.850;2022-10-31T05:47:51;35.88;;;13.20;;
32760;SDS011;19126;47.472;7.850;2022-10-31T05:50:19;34.30;;;14.60;;
32760;SDS011;19126;47.472;7.850;2022-10-31T05:52:47;42.95;;;14.85;;
32760;SDS011;19126;47.472;7.850;2022-10-31T05:55:21;29.70;;;14.15;;
32760;SDS011;19126;47.472;7.850;2022-10-31T05:57:48;40.83;;;15.75;;
32760;SDS011;19126;47.472;7.850;2022-10-31T06:00:18;29.65;;;14.13;;
32760;SDS011;19126;47.472;7.850;2022-10-31T06:02:46;29.48;;;13.15;;
32760;SDS011;19126;47.472;7.850;2022-10-31T06:05:34;22.27;;;12.48;;
32760;SDS011;19126;47.472;7.850;2022-10-31T06:08:01;21.52;;;13.50;;
32760;SDS011;19126;47.472;7.850;2022-10-31T06:10:29;25.70;;;14.02;;
32760;SDS011;19126;47.472;7.850;2022-10-31T06:12:56;32.45;;;14.35;;
32760;SDS011;19126;47.472;7.850;2022-10-31T06:15:23;25.75;;;14.68;;
32760;SDS011;19126;47.472;7.850;2022-10-31T06:17:59;40.17;;;16.40;;
32760;SDS011;19126;47.472;7.850;2022-10-31T06:20:27;34.17;;;15.93;;
32760;SDS011;19126;47.472;7.850;2022-10-31T06:22:54;38.00;;;17.42;;
32760;SDS011;19126;47.472;7.850;2022-10-31T06:25:21;25.48;;;12.55;;
32760;SDS011;19126;47.472;7.850;2022-10-31T06:27:49;42.17;;;16.25;;
32760;SDS011;19126;47.472;7.850;2022-10-31T06:30:16;27.30;;;15.10;;
32760;SDS011;19126;47.472;7.850;2022-10-31T06:32:43;25.27;;;13.70;;
32760;SDS011;19126;47.472;7.850;2022-10-31T06:35:12;41.95;;;18.45;;
32760;SDS011;19126;47.472;7.850;2022-10-31T06:37:39;37.17;;;18.08;;
32760;SDS011;19126;47.472;7.850;2022-10-31T06:40:07;32.35;;;16.33;;
32760;SDS011;19126;47.472;7.850;2022-10-31T06:42:35;23.50;;;14.00;;
32760;SDS011;19126;47.472;7.850;2022-10-31T06:45:03;38.42;;;15.70;;
32760;SDS011;19126;47.472;7.850;2022-10-31T06:47:31;28.45;;;15.93;;
32760;SDS011;19126;47.472;7.850;2022-10-31T06:49:58;29.25;;;16.02;;
32760;SDS011;19126;47.472;7.850;2022-10-31T06:52:27;41.88;;;18.40;;
32760;SDS011;19126;47.472;7.850;2022-10-31T06:54:54;36.03;;;18.38;;
32760;SDS011;19126;47.472;7.850;2022-10-31T06:57:21;33.88;;;17.38;;
32760;SDS011;19126;47.472;7.850;2022-10-31T06:59:48;40.05;;;21.00;;
32760;SDS011;19126;47.472;7.850;2022-10-31T07:02:16;37.10;;;19.13;;
32760;SDS011;19126;47.472;7.850;2022-10-31T07:04:43;35.13;;;18.90;;
32760;SDS011;19126;47.472;7.850;2022-10-31T07:07:10;37.95;;;18.38;;
32760;SDS011;19126;47.472;7.850;2022-10-31T07:09:39;45.55;;;20.77;;
32760;SDS011;19126;47.472;7.850;2022-10-31T07:12:06;42.25;;;20.63;;
32760;SDS011;19126;47.472;7.850;2022-10-31T07:14:33;47.63;;;20.50;;
32760;SDS011;19126;47.472;7.850;2022-10-31T07:17:00;40.75;;;17.55;;
32760;SDS011;19126;47.472;7.850;2022-10-31T07:19:27;40.58;;;17.55;;
32760;SDS011;19126;47.472;7.850;2022-10-31T07:21:55;43.13;;;18.98;;
32760;SDS011;19126;47.472;7.850;2022-10-31T07:24:23;37.72;;;17.58;;
32760;SDS011;19126;47.472;7.850;2022-10-31T07:26:52;39.88;;;17.63;;
32760;SDS011;19126;47.472;7.850;2022-10-31T07:29:19;60.17;;;20.00;;
32760;SDS011;19126;47.472;7.850;2022-10-31T07:31:46;34.72;;;18.50;;
32760;SDS011;19126;47.472;7.850;2022-10-31T07:34:13;37.05;;;18.45;;
32760;SDS011;19126;47.472;7.850;2022-10-31T07:36:40;43.17;;;18.90;;
32760;SDS011;19126;47.472;7.850;2022-10-31T07:39:08;35.15;;;17.08;;
32760;SDS011;19126;47.472;7.850;2022-10-31T07:41:35;29.77;;;16.70;;
32760;SDS011;19126;47.472;7.850;2022-10-31T07:44:04;30.67;;;16.75;;
32760;SDS011;19126;47.472;7.850;2022-10-31T07:46:31;40.47;;;17.30;;
32760;SDS011;19126;47.472;7.850;2022-10-31T07:48:58;36.03;;;16.98;;
32760;SDS011;19126;47.472;7.850;2022-10-31T07:51:26;42.45;;;16.33;;
32760;SDS011;19126;47.472;7.850;2022-10-31T07:53:53;28.67;;;14.90;;
32760;SDS011;19126;47.472;7.850;2022-10-31T07:56:20;38.28;;;16.33;;
32760;SDS011;19126;47.472;7.850;2022-10-31T07:58:47;33.38;;;15.02;;
32760;SDS011;19126;47.472;7.850;2022-10-31T08:01:16;36.33;;;16.13;;
32760;SDS011;19126;47.472;7.850;2022-10-31T08:03:43;38.22;;;15.93;;
32760;SDS011;19126;47.472;7.850;2022-10-31T08:06:10;38.60;;;15.63;;
32760;SDS011;19126;47.472;7.850;2022-10-31T08:08:38;34.42;;;14.93;;
32760;SDS011;19126;47.472;7.850;2022-10-31T08:11:05;28.35;;;14.88;;
32760;SDS011;19126;47.472;7.850;2022-10-31T08:13:32;30.67;;;14.68;;
32760;SDS011;19126;47.472;7.850;2022-10-31T08:15:59;42.55;;;17.05;;
32760;SDS011;19126;47.472;7.850;2022-10-31T08:18:30;31.52;;;15.05;;
32760;SDS011;19126;47.472;7.850;2022-10-31T08:20:57;38.60;;;16.00;;
32760;SDS011;19126;47.472;7.850;2022-10-31T08:23:24;33.65;;;17.13;;
32760;SDS011;19126;47.472;7.850;2022-10-31T08:25:52;38.38;;;13.52;;
32760;SDS011;19126;47.472;7.850;2022-10-31T08:28:19;32.97;;;14.27;;
32760;SDS011;19126;47.472;7.850;2022-10-31T08:30:46;34.05;;;12.27;;
32760;SDS011;19126;47.472;7.850;2022-10-31T08:33:15;32.30;;;12.07;;
32760;SDS011;19126;47.472;7.850;2022-10-31T08:35:45;24.98;;;11.90;;
32760;SDS011;19126;47.472;7.850;2022-10-31T08:38:13;24.48;;;11.70;;
32760;SDS011;19126;47.472;7.850;2022-10-31T08:40:40;27.85;;;12.80;;
32760;SDS011;19126;47.472;7.850;2022-10-31T08:43:10;28.13;;;14.57;;
32760;SDS011;19126;47.472;7.850;2022-10-31T08:45:39;25.83;;;12.05;;
32760;SDS011;19126;47.472;7.850;2022-10-31T08:48:15;25.48;;;12.25;;
32760;SDS011;19126;47.472;7.850;2022-10-31T08:50:43;26.05;;;12.85;;
32760;SDS011;19126;47.472;7.850;2022-10-31T08:53:13;29.77;;;11.52;;
32760;SDS011;19126;47.472;7.850;2022-10-31T08:55:43;30.23;;;11.18;;
32760;SDS011;19126;47.472;7.850;2022-10-31T08:58:13;26.67;;;11.23;;
32760;SDS011;19126;47.472;7.850;2022-10-31T09:00:42;32.78;;;13.27;;
32760;SDS011;19126;47.472;7.850;2022-10-31T09:03:10;25.75;;;11.55;;
32760;SDS011;19126;47.472;7.850;2022-10-31T09:05:40;18.05;;;10.52;;
32760;SDS011;19126;47.472;7.850;2022-10-31T09:08:09;25.50;;;11.25;;
32760;SDS011;19126;47.472;7.850;2022-10-31T09:10:36;23.15;;;11.95;;
32760;SDS011;19126;47.472;7.850;2022-10-31T09:13:04;34.17;;;11.32;;
32760;SDS011;19126;47.472;7.850;2022-10-31T09:15:34;20.35;;;9.70;;
32760;SDS011;19126;47.472;7.850;2022-10-31T09:18:03;22.55;;;10.40;;
32760;SDS011;19126;47.472;7.850;2022-10-31T09:20:31;23.10;;;9.85;;
32760;SDS011;19126;47.472;7.850;2022-10-31T09:23:00;18.65;;;10.48;;
32760;SDS011;19126;47.472;7.850;2022-10-31T09:25:31;24.75;;;10.02;;
32760;SDS011;19126;47.472;7.850;2022-10-31T09:28:00;23.98;;;10.82;;
32760;SDS011;19126;47.472;7.850;2022-10-31T09:30:30;22.13;;;9.52;;
32760;SDS011;19126;47.472;7.850;2022-10-31T09:33:00;22.45;;;9.95;;
32760;SDS011;19126;47.472;7.850;2022-10-31T09:35:29;22.80;;;9.02;;
32760;SDS011;19126;47.472;7.850;2022-10-31T09:37:56;23.83;;;9.55;;
32760;SDS011;19126;47.472;7.850;2022-10-31T09:40:25;21.73;;;8.38;;
32760;SDS011;19126;47.472;7.850;2022-10-31T09:43:00;24.38;;;10.13;;
32760;SDS011;19126;47.472;7.850;2022-10-31T09:45:41;22.02;;;9.80;;
32760;SDS011;19126;47.472;7.850;2022-10-31T09:51:12;27.17;;;9.15;;
32760;SDS011;19126;47.472;7.850;2022-10-31T09:53:47;22.33;;;9.15;;
32760;SDS011;19126;47.472;7.850;2022-10-31T09:56:21;20.75;;;9.10;;
32760;SDS011;19126;47.472;7.850;2022-10-31T09:58:50;19.25;;;9.15;;
32760;SDS011;19126;47.472;7.850;2022-10-31T10:01:32;19.23;;;8.75;;
32760;SDS011;19126;47.472;7.850;2022-10-31T10:04:11;22.70;;;10.27;;
32760;SDS011;19126;47.472;7.850;2022-10-31T10:07:01;29.58;;;9.07;;
32760;SDS011;19126;47.472;7.850;2022-10-31T10:09:37;22.35;;;9.50;;
32760;SDS011;19126;47.472;7.850;2022-10-31T10:12:08;22.95;;;9.63;;
32760;SDS011;19126;47.472;7.850;2022-10-31T10:14:45;28.58;;;9.10;;
32760;SDS011;19126;47.472;7.850;2022-10-31T10:17:31;19.13;;;8.90;;
32760;SDS011;19126;47.472;7.850;2022-10-31T10:20:11;22.90;;;8.23;;
32760;SDS011;19126;47.472;7.850;2022-10-31T10:25:23;21.92;;;8.85;;
32760;SDS011;19126;47.472;7.850;2022-10-31T10:27:58;17.60;;;7.57;;
32760;SDS011;19126;47.472;7.850;2022-10-31T10:30:35;24.83;;;9.00;;
32760;SDS011;19126;47.472;7.850;2022-10-31T10:33:09;23.88;;;8.38;;
32760;SDS011;19126;47.472;7.850;2022-10-31T10:35:41;22.65;;;8.23;;
32760;SDS011;19126;47.472;7.850;2022-10-31T10:38:17;19.38;;;8.20;;
32760;SDS011;19126;47.472;7.850;2022-10-31T10:40:52;20.98;;;9.25;;
32760;SDS011;19126;47.472;7.850;2022-10-31T10:43:23;18.50;;;9.25;;
32760;SDS011;19126;47.472;7.850;2022-10-31T10:46:03;25.08;;;8.70;;
32760;SDS011;19126;47.472;7.850;2022-10-31T10:49:11;22.08;;;9.05;;
32760;SDS011;19126;47.472;7.850;2022-10-31T10:51:44;16.90;;;7.95;;
32760;SDS011;19126;47.472;7.850;2022-10-31T10:54:33;12.93;;;6.88;;
32760;SDS011;19126;47.472;7.850;2022-10-31T10:57:27;19.75;;;8.02;;
32760;SDS011;19126;47.472;7.850;2022-10-31T11:00:13;23.25;;;8.50;;
32760;SDS011;19126;47.472;7.850;2022-10-31T11:02:47;15.35;;;7.88;;
32760;SDS011;19126;47.472;7.850;2022-10-31T11:05:18;19.88;;;7.72;;
32760;SDS011;19126;47.472;7.850;2022-10-31T11:07:51;22.27;;;8.02;;
32760;SDS011;19126;47.472;7.850;2022-10-31T11:10:18;19.48;;;7.85;;
32760;SDS011;19126;47.472;7.850;2022-10-31T11:12:56;17.52;;;6.85;;
32760;SDS011;19126;47.472;7.850;2022-10-31T11:15:35;13.52;;;8.18;;
32760;SDS011;19126;47.472;7.850;2022-10-31T11:18:21;18.42;;;7.10;;
32760;SDS011;19126;47.472;7.850;2022-10-31T11:20:51;19.05;;;7.60;;
32760;SDS011;19126;47.472;7.850;2022-10-31T11:23:21;19.00;;;6.20;;
32760;SDS011;19126;47.472;7.850;2022-10-31T11:25:52;17.88;;;6.90;;
32760;SDS011;19126;47.472;7.850;2022-10-31T11:28:23;21.15;;;7.13;;
32760;SDS011;19126;47.472;7.850;2022-10-31T11:30:54;12.88;;;6.57;;
32760;SDS011;19126;47.472;7.850;2022-10-31T11:33:25;17.63;;;7.15;;
32760;SDS011;19126;47.472;7.850;2022-10-31T11:35:57;16.58;;;6.82;;
32760;SDS011;19126;47.472;7.850;2022-10-31T11:38:28;14.65;;;6.97;;
32760;SDS011;19126;47.472;7.850;2022-10-31T11:41:03;18.25;;;7.50;;
32760;SDS011;19126;47.472;7.850;2022-10-31T11:43:38;16.77;;;7.35;;
32760;SDS011;19126;47.472;7.850;2022-10-31T11:46:14;20.70;;;8.07;;
32760;SDS011;19126;47.472;7.850;2022-10-31T11:48:47;13.00;;;6.90;;
32760;SDS011;19126;47.472;7.850;2022-10-31T11:51:20;26.00;;;7.40;;
32760;SDS011;19126;47.472;7.850;2022-10-31T11:53:52;19.67;;;7.38;;
32760;SDS011;19126;47.472;7.850;2022-10-31T11:56:21;23.02;;;7.70;;
32760;SDS011;19126;47.472;7.850;2022-10-31T11:58:56;18.00;;;6.95;;
32760;SDS011;19126;47.472;7.850;2022-10-31T12:01:27;20.50;;;6.53;;
32760;SDS011;19126;47.472;7.850;2022-10-31T12:06:33;24.27;;;7.00;;
32760;SDS011;19126;47.472;7.850;2022-10-31T12:09:02;28.60;;;6.65;;
32760;SDS011;19126;47.472;7.850;2022-10-31T12:11:46;15.18;;;5.93;;
32760;SDS011;19126;47.472;7.850;2022-10-31T12:15:04;13.88;;;5.40;;
32760;SDS011;19126;47.472;7.850;2022-10-31T12:17:54;14.98;;;6.32;;
32760;SDS011;19126;47.472;7.850;2022-10-31T12:20:54;20.77;;;6.53;;
32760;SDS011;19126;47.472;7.850;2022-10-31T12:23:47;25.92;;;6.45;;
32760;SDS011;19126;47.472;7.850;2022-10-31T12:26:28;18.23;;;6.03;;
32760;SDS011;19126;47.472;7.850;2022-10-31T12:29:07;22.45;;;6.55;;
32760;SDS011;19126;47.472;7.850;2022-10-31T12:31:51;19.17;;;5.53;;
32760;SDS011;19126;47.472;7.850;2022-10-31T12:34:45;16.25;;;5.75;;
32760;SDS011;19126;47.472;7.850;2022-10-31T12:37:35;16.33;;;6.70;;
32760;SDS011;19126;47.472;7.850;2022-10-31T12:40:21;19.13;;;6.45;;
32760;SDS011;19126;47.472;7.850;2022-10-31T12:43:15;21.92;;;6.53;;
32760;SDS011;19126;47.472;7.850;2022-10-31T12:45:57;19.73;;;7.35;;
32760;SDS011;19126;47.472;7.850;2022-10-31T12:48:37;21.60;;;7.15;;
32760;SDS011;19126;47.472;7.850;2022-10-31T12:51:35;25.25;;;6.40;;
32760;SDS011;19126;47.472;7.850;2022-10-31T12:56:56;26.83;;;7.40;;
32760;SDS011;19126;47.472;7.850;2022-10-31T12:59:33;23.52;;;6.50;;
32760;SDS011;19126;47.472;7.850;2022-10-31T13:02:09;23.83;;;5.53;;
32760;SDS011;19126;47.472;7.850;2022-10-31T13:04:46;16.30;;;5.30;;
32760;SDS011;19126;47.472;7.850;2022-10-31T13:07:20;17.95;;;5.13;;
32760;SDS011;19126;47.472;7.850;2022-10-31T13:09:54;19.77;;;5.57;;
32760;SDS011;19126;47.472;7.850;2022-10-31T13:12:29;17.13;;;5.40;;
32760;SDS011;19126;47.472;7.850;2022-10-31T13:15:02;15.45;;;5.38;;
32760;SDS011;19126;47.472;7.850;2022-10-31T13:17:39;22.33;;;5.30;;
32760;SDS011;19126;47.472;7.850;2022-10-31T13:20:13;10.77;;;4.88;;
32760;SDS011;19126;47.472;7.850;2022-10-31T13:22:53;17.38;;;5.40;;
32760;SDS011;19126;47.472;7.850;2022-10-31T13:25:28;22.80;;;6.95;;
32760;SDS011;19126;47.472;7.850;2022-10-31T13:28:02;15.13;;;5.93;;
32760;SDS011;19126;47.472;7.850;2022-10-31T13:30:39;18.23;;;5.72;;
32760;SDS011;19126;47.472;7.850;2022-10-31T13:33:08;23.27;;;5.65;;
32760;SDS011;19126;47.472;7.850;2022-10-31T13:35:43;21.67;;;5.90;;
32760;SDS011;19126;47.472;7.850;2022-10-31T13:38:20;15.88;;;5.00;;
32760;SDS011;19126;47.472;7.850;2022-10-31T13:40:57;19.88;;;5.45;;
32760;SDS011;19126;47.472;7.850;2022-10-31T13:43:34;14.23;;;5.80;;
32760;SDS011;19126;47.472;7.850;2022-10-31T13:46:21;13.60;;;5.40;;
32760;SDS011;19126;47.472;7.850;2022-10-31T13:48:50;19.15;;;4.85;;
32760;SDS011;19126;47.472;7.850;2022-10-31T13:51:24;14.43;;;5.40;;
32760;SDS011;19126;47.472;7.850;2022-10-31T13:53:59;15.38;;;5.80;;
32760;SDS011;19126;47.472;7.850;2022-10-31T13:56:32;19.50;;;5.50;;
32760;SDS011;19126;47.472;7.850;2022-10-31T13:59:02;18.77;;;6.15;;
32760;SDS011;19126;47.472;7.850;2022-10-31T14:01:45;18.10;;;5.50;;
32760;SDS011;19126;47.472;7.850;2022-10-31T14:04:17;19.73;;;5.47;;
32760;SDS011;19126;47.472;7.850;2022-10-31T14:06:51;13.18;;;5.47;;
32760;SDS011;19126;47.472;7.850;2022-10-31T14:09:33;20.70;;;6.72;;
32760;SDS011;19126;47.472;7.850;2022-10-31T14:12:04;18.75;;;5.75;;
32760;SDS011;19126;47.472;7.850;2022-10-31T14:14:39;11.80;;;5.50;;
32760;SDS011;19126;47.472;7.850;2022-10-31T14:17:16;17.73;;;5.88;;
32760;SDS011;19126;47.472;7.850;2022-10-31T14:20:02;14.48;;;6.30;;
32760;SDS011;19126;47.472;7.850;2022-10-31T14:22:57;14.63;;;6.15;;
32760;SDS011;19126;47.472;7.850;2022-10-31T14:25:27;17.25;;;6.88;;
32760;SDS011;19126;47.472;7.850;2022-10-31T14:27:58;22.55;;;6.80;;
32760;SDS011;19126;47.472;7.850;2022-10-31T14:30:28;19.50;;;7.40;;
32760;SDS011;19126;47.472;7.850;2022-10-31T14:32:57;23.67;;;6.85;;
32760;SDS011;19126;47.472;7.850;2022-10-31T14:35:34;26.23;;;7.00;;
32760;SDS011;19126;47.472;7.850;2022-10-31T14:38:31;23.95;;;6.85;;
32760;SDS011;19126;47.472;7.850;2022-10-31T14:41:21;14.18;;;6.70;;
32760;SDS011;19126;47.472;7.850;2022-10-31T14:44:18;16.00;;;6.65;;
32760;SDS011;19126;47.472;7.850;2022-10-31T14:47:27;12.93;;;6.65;;
32760;SDS011;19126;47.472;7.850;2022-10-31T14:53:02;20.92;;;8.13;;
32760;SDS011;19126;47.472;7.850;2022-10-31T14:55:32;18.05;;;7.18;;
32760;SDS011;19126;47.472;7.850;2022-10-31T14:58:02;25.63;;;8.05;;
32760;SDS011;19126;47.472;7.850;2022-10-31T15:00:33;21.60;;;8.95;;
32760;SDS011;19126;47.472;7.850;2022-10-31T15:03:06;32.90;;;9.50;;
32760;SDS011;19126;47.472;7.850;2022-10-31T15:05:41;23.73;;;7.07;;
32760;SDS011;19126;47.472;7.850;2022-10-31T15:08:13;27.50;;;8.63;;
32760;SDS011;19126;47.472;7.850;2022-10-31T15:10:58;12.90;;;6.75;;
32760;SDS011;19126;47.472;7.850;2022-10-31T15:13:42;19.38;;;7.53;;
32760;SDS011;19126;47.472;7.850;2022-10-31T15:16:11;17.95;;;6.97;;
32760;SDS011;19126;47.472;7.850;2022-10-31T15:18:47;17.75;;;6.88;;
32760;SDS011;19126;47.472;7.850;2022-10-31T15:21:19;16.90;;;7.45;;
32760;SDS011;19126;47.472;7.850;2022-10-31T15:23:49;24.83;;;7.45;;